Date,TemperatureHighF,TemperatureAvgF,TemperatureLowF,DewpointHighF,DewpointAvgF,DewpointLowF,HumidityHigh,HumidityAvg,HumidityLow,PressureMaxIn,PressureMinIn,WindSpeedMaxMPH,WindSpeedAvgMPH,GustSpeedMaxMPH,PrecipitationSumIn
2012-1-1,40,31,22,-100,-100,-100,0,0,100,0.00,40.00,0,-999,0,0.00
2012-1-2,44,40,31,-100,-100,-100,0,0,100,0.00,40.00,0,-999,0,0.00
2012-1-3,42,34,28,-100,-100,-100,0,0,100,0.00,40.00,0,-999,0,0.00
2012-1-4,44,33,28,-100,-100,-100,0,0,100,0.00,40.00,0,-999,0,0.00
2012-1-5,45,34,29,-100,-100,-100,0,0,100,0.00,40.00,0,-999,0,0.00
2012-1-6,38,31,22,-100,-100,-100,0,0,100,0.00,40.00,0,-999,0,0.00
2012-1-7,28,19,9,-100,-100,-100,0,0,100,0.00,40.00,0,-999,0,0.01
2012-1-8,29,21,9,-100,-100,-100,0,0,100,0.00,40.00,0,-999,0,0.01
2012-1-9,43,31,26,-100,-100,-100,0,0,100,0.00,40.00,0,-999,0,0.00
2012-1-10,40,30,23,-100,-100,-100,0,0,100,0.00,40.00,0,-999,0,0.00
2012-1-11,29,22,15,-100,-100,-100,0,0,100,0.00,40.00,0,-999,0,0.00
2012-1-12,30,21,16,-100,-100,-100,0,0,100,0.00,40.00,0,-999,0,0.00
2012-1-13,36,25,15,-100,-100,-100,0,0,100,0.00,40.00,0,-999,0,0.00
2012-1-14,42,31,23,-100,-100,-100,0,0,100,0.00,40.00,0,-999,0,0.00
2012-1-15,35,29,24,-100,-100,-100,0,0,100,0.00,40.00,0,-999,0,0.00
2012-1-16,23,11,-3,-100,-100,-100,0,0,100,0.00,40.00,0,-999,0,0.00
2012-1-17,23,16,-2,-100,-100,-100,0,0,100,0.00,40.00,0,-999,0,0.01
2012-1-18,35,30,24,-100,-100,-100,0,0,100,0.00,40.00,0,-999,0,0.01
2012-1-19,43,37,31,-100,-100,-100,0,0,100,0.00,40.00,0,-999,0,0.00
2012-1-20,36,32,28,-100,-100,-100,0,0,100,0.00,40.00,0,-999,0,0.01
2012-1-21,37,26,16,-100,-100,-100,0,0,100,0.00,40.00,0,-999,0,0.04
2012-1-22,26,20,8,-100,-100,-100,0,0,100,0.00,40.00,0,-999,0,0.01
2012-1-23,28,24,22,-100,-100,-100,0,0,100,0.00,40.00,0,-999,0,0.01
2012-1-24,29,21,9,-100,-100,-100,0,0,100,0.00,40.00,0,-999,0,0.01
2012-1-25,41,33,27,-100,-100,-100,0,0,100,0.00,40.00,0,-999,0,0.01
2012-1-26,36,32,27,-100,-100,-100,0,0,100,0.00,40.00,0,-999,0,0.00
2012-1-27,24,14,6,-100,-100,-100,0,0,100,0.00,40.00,0,-999,0,0.00
2012-1-28,33,20,8,-100,-100,-100,0,0,100,0.00,40.00,0,-999,0,0.00
2012-1-29,42,29,22,-100,-100,-100,0,0,100,0.00,40.00,0,-999,0,0.00
2012-1-30,35,27,17,-100,-100,-100,0,0,100,0.00,40.00,0,-999,0,0.00
2012-1-31,34,23,15,-100,-100,-100,0,0,100,0.00,40.00,0,-999,0,0.00
2012-2-1,32,27,18,-100,-100,-100,0,0,100,0.00,40.00,0,-999,0,0.00
2012-2-2,21,17,14,-100,-100,-100,0,0,100,0.00,40.00,0,-999,0,0.01
2012-2-3,26,17,12,-100,-100,-100,0,0,100,0.00,40.00,0,-999,0,0.01
2012-2-4,27,16,8,-100,-100,-100,0,0,100,0.00,40.00,0,-999,0,0.00
2012-2-5,28,14,6,-100,-100,-100,0,0,100,0.00,40.00,0,-999,0,0.00
2012-2-6,29,15,5,-100,-100,-100,0,0,100,0.00,40.00,0,-999,0,0.00
2012-2-7,35,26,11,-100,-100,-100,0,0,100,0.00,40.00,0,-999,0,0.01
2012-2-8,34,28,21,-100,-100,-100,0,0,100,0.00,40.00,0,-999,0,0.01
2012-2-9,38,29,21,-100,-100,-100,0,0,100,0.00,40.00,0,-999,0,0.00
2012-2-10,40,30,20,-100,-100,-100,0,0,100,0.00,40.00,0,-999,0,0.00
2012-2-11,37,32,27,-100,-100,-100,0,0,100,0.00,40.00,0,-999,0,0.00
2012-2-12,27,24,16,-100,-100,-100,0,0,100,0.00,40.00,0,-999,0,0.01
2012-2-13,27,22,15,-100,-100,-100,0,0,100,0.00,40.00,0,-999,0,0.02
2012-2-14,24,21,14,-100,-100,-100,0,0,100,0.00,40.00,0,-999,0,0.02
2012-2-15,25,20,10,-100,-100,-100,0,0,100,0.00,40.00,0,-999,0,0.02
2012-2-16,28,18,11,-100,-100,-100,0,0,100,0.00,40.00,0,-999,0,0.01
2012-2-17,34,21,11,-100,-100,-100,0,0,100,0.00,40.00,0,-999,0,0.00
2012-2-18,33,24,14,-100,-100,-100,0,0,100,0.00,40.00,0,-999,0,0.01
2012-2-19,22,14,2,-100,-100,-100,0,0,100,0.00,40.00,0,-999,0,0.01
2012-2-20,27,16,1,-100,-100,-100,0,0,100,0.00,40.00,0,-999,0,0.00
2012-2-21,34,27,19,-100,-100,-100,0,0,100,0.00,40.00,0,-999,0,0.01
2012-2-22,37,32,26,-100,-100,-100,0,0,100,0.00,40.00,0,-999,0,0.00
2012-2-23,31,23,11,-100,-100,-100,0,0,100,0.00,40.00,0,-999,0,0.00
2012-2-24,42,26,12,-100,-100,-100,0,0,100,0.00,40.00,0,-999,0,0.01
2012-2-25,33,26,9,-100,-100,-100,0,0,100,0.00,40.00,0,-999,0,0.01
2012-2-26,30,17,-3,-100,-100,-100,0,0,100,0.00,40.00,0,-999,0,0.00
2012-2-27,26,23,17,-100,-100,-100,0,0,100,0.00,40.00,0,-999,0,0.01
2012-2-28,21,17,10,-100,-100,-100,0,0,100,0.00,40.00,0,-999,0,0.00
2012-2-29,31,24,18,-100,-100,-100,0,0,100,0.00,40.00,0,-999,0,0.04
2012-3-1,18,14,6,-100,-100,-100,0,0,100,0.00,40.00,0,-999,0,0.04
2012-3-2,17,9,1,-100,-100,-100,0,0,100,0.00,40.00,0,-999,0,0.01
2012-3-3,36,25,14,-100,-100,-100,0,0,100,0.00,40.00,0,-999,0,0.01
2012-3-4,46,30,17,-100,-100,-100,0,0,100,0.00,40.00,0,-999,0,0.00
2012-3-5,46,36,28,-100,-100,-100,0,0,100,0.00,40.00,0,-999,0,0.00
2012-3-6,37,26,8,-100,-100,-100,0,0,100,0.00,40.00,0,-999,0,0.02
2012-3-7,26,15,5,-100,-100,-100,0,0,100,0.00,40.00,0,-999,0,0.01
2012-3-8,38,30,22,-100,-100,-100,0,0,100,0.00,40.00,0,-999,0,0.01
2012-3-9,47,32,21,-100,-100,-100,0,0,100,0.00,40.00,0,-999,0,0.00
2012-3-10,46,33,23,-100,-100,-100,0,0,100,0.00,40.00,0,-999,0,0.00
2012-3-11,43,34,27,-100,-100,-100,0,0,100,0.00,40.00,0,-999,0,0.00
2012-3-12,41,34,27,-100,-100,-100,0,0,100,0.00,40.00,0,-999,0,0.00
2012-3-13,41,35,31,-100,-100,-100,0,0,100,0.00,40.00,0,-999,0,0.01
2012-3-14,44,36,30,-100,-100,-100,0,0,100,0.00,40.00,0,-999,0,0.00
2012-3-15,45,37,28,-100,-100,-100,0,0,100,0.00,40.00,0,-999,0,0.00
2012-3-16,44,38,32,-100,-100,-100,0,0,100,0.00,40.00,0,-999,0,0.00
2012-3-17,36,31,25,-100,-100,-100,0,0,100,0.00,40.00,0,-999,0,0.03
2012-3-18,24,18,14,-100,-100,-100,0,0,100,0.00,40.00,0,-999,0,0.03
2012-3-19,22,15,6,-100,-100,-100,0,0,100,0.00,40.00,0,-999,0,0.01
2012-3-20,35,27,3,-100,-100,-100,0,0,100,0.00,40.00,0,-999,0,0.00
2012-3-21,44,33,24,-100,-100,-100,0,0,100,0.00,40.00,0,-999,0,0.01
2012-3-22,50,39,28,-100,-100,-100,0,0,100,0.00,40.00,0,-999,0,0.00
2012-3-23,43,40,37,-100,-100,-100,0,0,100,0.00,40.00,0,-999,0,0.00
2012-3-24,45,39,35,-100,-100,-100,0,0,100,0.00,40.00,0,-999,0,0.01
2012-3-25,42,38,32,-100,-100,-100,0,0,100,0.00,40.00,0,-999,0,0.01
2012-3-26,31,24,18,-100,-100,-100,0,0,100,0.00,40.00,0,-999,0,0.01
2012-3-27,38,32,22,-100,-100,-100,0,0,100,0.00,40.00,0,-999,0,0.00
2012-3-28,42,36,30,-100,-100,-100,0,0,100,0.00,40.00,0,-999,0,0.00
2012-3-29,43,36,27,-100,-100,-100,0,0,100,0.00,40.00,0,-999,0,0.00
2012-3-30,49,41,33,-100,-100,-100,0,0,100,0.00,40.00,0,-999,0,0.00
2012-3-31,49,42,37,-100,-100,-100,0,0,100,0.00,40.00,0,-999,0,0.00
2012-4-1,36,23,18,-100,-100,-100,0,0,100,0.00,40.00,0,-999,0,0.02
2012-4-2,31,22,15,-100,-100,-100,0,0,100,0.00,40.00,0,-999,0,0.01
2012-4-3,46,31,18,-100,-100,-100,0,0,100,0.00,40.00,0,-999,0,0.00
2012-4-4,47,42,35,-100,-100,-100,0,0,100,0.00,40.00,0,-999,0,0.01
2012-4-5,38,30,18,-100,-100,-100,0,0,100,0.00,40.00,0,-999,0,0.00
2012-4-6,26,18,13,-100,-100,-100,0,0,100,0.00,40.00,0,-999,0,0.01
2012-4-7,46,31,13,-100,-100,-100,0,0,100,0.00,40.00,0,-999,0,0.01
2012-4-8,50,39,30,-100,-100,-100,0,0,100,0.00,40.00,0,-999,0,0.00
2012-4-9,52,40,31,-100,-100,-100,0,0,100,0.00,40.00,0,-999,0,0.00
2012-4-10,51,44,34,-100,-100,-100,0,0,100,0.00,40.00,0,-999,0,0.00
2012-4-11,42,35,28,-100,-100,-100,0,0,100,0.00,40.00,0,-999,0,0.01
2012-4-12,33,27,24,-100,-100,-100,0,0,100,0.00,40.00,0,-999,0,0.01
2012-4-13,31,27,22,-100,-100,-100,0,0,100,0.00,40.00,0,-999,0,0.01
2012-4-14,32,27,22,-100,-100,-100,0,0,100,0.00,40.00,0,-999,0,0.01
2012-4-15,37,30,19,-100,-100,-100,0,0,100,0.00,40.00,0,-999,0,0.01
2012-4-16,46,35,21,-100,-100,-100,0,0,100,0.00,40.00,0,-999,0,0.02
2012-4-17,45,38,31,-100,-100,-100,0,0,100,0.00,40.00,0,-999,0,0.02
2012-4-18,42,38,34,-100,-100,-100,0,0,100,0.00,40.00,0,-999,0,0.01
2012-4-19,46,38,31,-100,-100,-100,0,0,100,0.00,40.00,0,-999,0,0.00
2012-4-20,54,43,31,-100,-100,-100,0,0,100,0.00,40.00,0,-999,0,0.00
2012-4-21,60,46,37,-100,-100,-100,0,0,100,0.00,40.00,0,-999,0,0.00
2012-4-22,64,49,40,-100,-100,-100,0,0,100,0.00,40.00,0,-999,0,0.00
2012-4-23,61,50,41,-100,-100,-100,0,0,100,0.00,40.00,0,-999,0,0.00
2012-4-24,58,48,38,-100,-100,-100,0,0,100,0.00,40.00,0,-999,0,0.00
2012-4-25,49,44,38,-100,-100,-100,0,0,100,0.00,40.00,0,-999,0,0.01
2012-4-26,46,41,29,-100,-100,-100,0,0,100,0.00,40.00,0,-999,0,0.03
2012-4-27,37,29,21,-100,-100,-100,0,0,100,0.00,40.00,0,-999,0,0.03
2012-4-28,43,32,24,-100,-100,-100,0,0,100,0.00,40.00,0,-999,0,0.00
2012-4-29,48,36,26,-100,-100,-100,0,0,100,0.00,40.00,0,-999,0,0.00
2012-4-30,51,42,32,-100,-100,-100,0,0,100,0.00,40.00,0,-999,0,0.00
2012-5-1,51,44,38,-100,-100,-100,0,0,100,0.00,40.00,0,-999,0,0.00
2012-5-2,53,44,31,-100,-100,-100,0,0,100,0.00,40.00,0,-999,0,0.00
2012-5-3,54,47,39,-100,-100,-100,0,0,100,0.00,40.00,0,-999,0,0.00
2012-5-4,51,43,35,-100,-100,-100,0,0,100,0.00,40.00,0,-999,0,0.00
2012-5-5,44,33,24,-100,-100,-100,0,0,100,0.00,40.00,0,-999,0,0.00
2012-5-6,45,35,24,-100,-100,-100,0,0,100,0.00,40.00,0,-999,0,0.00
2012-5-7,42,36,28,-100,-100,-100,0,0,100,0.00,40.00,0,-999,0,0.00
2012-5-8,54,43,33,-100,-100,-100,0,0,100,0.00,40.00,0,-999,0,0.00
2012-5-9,60,47,34,-100,-100,-100,0,0,100,0.00,40.00,0,-999,0,0.00
2012-5-10,56,46,36,-100,-100,-100,0,0,100,0.00,40.00,0,-999,0,0.00
2012-5-11,53,43,35,-100,-100,-100,0,0,100,0.00,40.00,0,-999,0,0.00
2012-5-12,56,42,31,-100,-100,-100,0,0,100,0.00,40.00,0,-999,0,0.00
2012-5-13,58,46,31,-100,-100,-100,0,0,100,0.00,40.00,0,-999,0,0.00
2012-5-14,61,51,37,-100,-100,-100,0,0,100,0.00,40.00,0,-999,0,0.00
2012-5-15,60,54,48,-100,-100,-100,0,0,100,0.00,40.00,0,-999,0,0.00
2012-5-16,58,49,39,-100,-100,-100,0,0,100,0.00,40.00,0,-999,0,0.00
2012-5-17,60,51,41,-100,-100,-100,0,0,100,0.00,40.00,0,-999,0,0.00
2012-5-18,44,38,31,-100,-100,-100,0,0,100,0.00,40.00,0,-999,0,0.00
2012-5-19,55,40,28,-100,-100,-100,0,0,100,0.00,40.00,0,-999,0,0.00
2012-5-20,63,51,35,-100,-100,-100,0,0,100,0.00,40.00,0,-999,0,0.00
2012-5-21,66,55,41,-100,-100,-100,0,0,100,0.00,40.00,0,-999,0,0.00
2012-5-22,65,53,42,-100,-100,-100,0,0,100,0.00,40.00,0,-999,0,0.00
2012-5-23,46,40,32,-100,-100,-100,0,0,100,0.00,40.00,0,-999,0,0.01
2012-5-24,51,41,29,-100,-100,-100,0,0,100,0.00,40.00,0,-999,0,0.00
2012-5-25,50,40,30,-100,-100,-100,0,0,100,0.00,40.00,0,-999,0,0.00
2012-5-26,33,30,27,-100,-100,-100,0,0,100,0.00,40.00,0,-999,0,0.02
2012-5-27,40,32,27,-100,-100,-100,0,0,100,0.00,40.00,0,-999,0,0.01
2012-5-28,54,41,27,-100,-100,-100,0,0,100,0.00,40.00,0,-999,0,0.01
2012-5-29,59,48,36,-100,-100,-100,0,0,100,0.00,40.00,0,-999,0,0.00
2012-5-30,62,50,37,-100,-100,-100,0,0,100,0.00,40.00,0,-999,0,0.00
2012-5-31,64,53,40,-100,-100,-100,0,0,100,0.00,40.00,0,-999,0,0.00
2012-6-1,65,56,42,-100,-100,-100,0,0,100,0.00,40.00,0,-999,0,0.01
2012-6-2,70,58,47,-100,-100,-100,0,0,100,0.00,40.00,0,-999,0,0.00
2012-6-3,72,61,44,-100,-100,-100,0,0,100,0.00,40.00,0,-999,0,0.00
2012-6-4,65,57,47,-100,-100,-100,0,0,100,0.00,40.00,0,-999,0,0.00
2012-6-5,53,38,28,-100,-100,-100,0,0,100,0.00,40.00,0,-999,0,0.01
2012-6-6,49,37,26,-100,-100,-100,0,0,100,0.00,40.00,0,-999,0,0.00
2012-6-7,59,46,32,-100,-100,-100,0,0,100,0.00,40.00,0,-999,0,0.00
2012-6-8,65,56,44,-100,-100,-100,0,0,100,0.00,40.00,0,-999,0,0.00
2012-6-9,56,44,30,-100,-100,-100,0,0,100,0.00,40.00,0,-999,0,0.01
2012-6-10,51,39,24,-100,-100,-100,0,0,100,0.00,40.00,0,-999,0,0.00
2012-6-11,61,49,36,-100,-100,-100,0,0,100,0.00,40.00,0,-999,0,0.00
2012-6-12,67,54,40,-100,-100,-100,0,0,100,0.00,40.00,0,-999,0,0.00
2012-6-13,69,56,42,-100,-100,-100,0,0,100,0.00,40.00,0,-999,0,0.00
2012-6-14,68,56,46,-100,-100,-100,0,0,100,0.00,40.00,0,-999,0,0.00
2012-6-15,66,55,43,-100,-100,-100,0,0,100,0.00,40.00,0,-999,0,0.00
2012-6-16,68,56,43,-100,-100,-100,0,0,100,0.00,40.00,0,-999,0,0.00
2012-6-17,52,49,48,-100,-100,-100,0,0,100,0.00,40.00,0,-999,0,0.00
2012-6-18,71,60,47,-100,-100,-100,0,0,100,0.00,40.00,0,-999,0,0.00
2012-6-19,62,52,39,-100,-100,-100,0,0,100,0.00,40.00,0,-999,0,0.00
2012-6-20,64,52,35,-100,-100,-100,0,0,100,0.00,40.00,0,-999,0,0.00
2012-6-21,72,60,45,-100,-100,-100,0,0,100,0.00,40.00,0,-999,0,0.00
2012-6-22,67,59,51,-100,-100,-100,0,0,100,0.00,40.00,0,-999,0,0.00
2012-6-23,67,58,50,-100,-100,-100,0,0,100,0.00,40.00,0,-999,0,0.00
2012-6-24,69,60,53,-100,-100,-100,0,0,100,0.00,40.00,0,-999,0,0.00
2012-6-25,69,61,54,-100,-100,-100,0,0,100,0.00,40.00,0,-999,0,0.00
2012-6-26,65,57,50,-100,-100,-100,0,0,100,0.00,40.00,0,-999,0,0.00
2012-6-27,68,57,41,-100,-100,-100,0,0,100,0.00,40.00,0,-999,0,0.00
2012-6-28,70,59,47,-100,-100,-100,0,0,100,0.00,40.00,0,-999,0,0.00
2012-6-29,70,59,45,-100,-100,-100,0,0,100,0.00,40.00,0,-999,0,0.00
2012-6-30,72,62,44,-100,-100,-100,0,0,100,0.00,40.00,0,-999,0,0.00
2012-7-1,72,63,51,-100,-100,-100,0,0,100,0.00,40.00,0,-999,0,0.00
2012-7-2,71,61,47,-100,-100,-100,0,0,100,0.00,40.00,0,-999,0,0.00
2012-7-3,70,61,46,-100,-100,-100,0,0,100,0.00,40.00,0,-999,0,0.00
2012-7-4,68,60,47,-100,-100,-100,0,0,100,0.00,40.00,0,-999,0,0.00
2012-7-5,59,51,47,-100,-100,-100,0,0,100,0.00,40.00,0,-999,0,0.02
2012-7-6,66,55,45,-100,-100,-100,0,0,100,0.00,40.00,0,-999,0,0.00
2012-7-7,67,57,46,-100,-100,-100,0,0,100,0.00,40.00,0,-999,0,0.01
2012-7-8,68,60,51,-100,-100,-100,0,0,100,0.00,40.00,0,-999,0,0.00
2012-7-9,73,63,51,-100,-100,-100,0,0,100,0.00,40.00,0,-999,0,0.00
2012-7-10,75,65,53,-100,-100,-100,0,0,100,0.00,40.00,0,-999,0,0.00
2012-7-11,78,66,55,-100,-100,-100,0,0,100,0.00,40.00,0,-999,0,0.81
2012-7-12,72,59,49,-100,-100,-100,0,0,100,0.00,40.00,0,-999,0,0.02
2012-7-13,60,55,48,-100,-100,-100,0,0,100,0.00,40.00,0,-999,0,0.01
2012-7-14,59,51,46,-100,-100,-100,0,0,100,0.00,40.00,0,-999,0,0.02
2012-7-15,60,51,45,-100,-100,-100,0,0,100,0.00,40.00,0,-999,0,0.03
2012-7-16,53,47,45,-100,-100,-100,0,0,100,0.00,40.00,0,-999,0,0.05
2012-7-17,62,57,52,-100,-100,-100,0,0,100,0.00,40.00,0,-999,0,0.01
2012-7-18,64,55,46,-100,-100,-100,0,0,100,0.00,40.00,0,-999,0,0.00
2012-7-19,66,57,46,-100,-100,-100,0,0,100,0.00,40.00,0,-999,0,0.01
2012-7-20,65,57,48,-100,-100,-100,0,0,100,0.00,40.00,0,-999,0,0.01
2012-7-21,70,60,49,-100,-100,-100,0,0,100,0.00,40.00,0,-999,0,0.00
2012-7-22,68,56,48,-100,-100,-100,0,0,100,0.00,40.00,0,-999,0,0.01
2012-7-23,62,53,46,-100,-100,-100,0,0,100,0.00,40.00,0,-999,0,0.01
2012-7-24,65,55,46,-100,-100,-100,0,0,100,0.00,40.00,0,-999,0,0.01
2012-7-25,70,56,45,-100,-100,-100,0,0,100,0.00,40.00,0,-999,0,0.00
2012-7-26,68,58,47,-100,-100,-100,0,0,100,0.00,40.00,0,-999,0,0.00
2012-7-27,69,59,48,-100,-100,-100,0,0,100,0.00,40.00,0,-999,0,0.00
2012-7-28,71,60,50,-100,-100,-100,0,0,100,0.00,40.00,0,-999,0,0.00
2012-7-29,70,58,44,-100,-100,-100,0,0,100,0.00,40.00,0,-999,0,0.00
2012-7-30,72,58,46,-100,-100,-100,0,0,100,0.00,40.00,0,-999,0,0.00
2012-7-31,65,56,48,-100,-100,-100,0,0,100,0.00,40.00,0,-999,0,0.01
2012-8-1,72,62,48,-100,-100,-100,0,0,100,0.00,40.00,0,-999,0,0.00
2012-8-2,72,60,44,-100,-100,-100,0,0,100,0.00,40.00,0,-999,0,0.00
2012-8-3,72,61,44,-100,-100,-100,0,0,100,0.00,40.00,0,-999,0,0.00
2012-8-4,71,59,47,-100,-100,-100,0,0,100,0.00,40.00,0,-999,0,0.00
2012-8-5,68,60,49,-100,-100,-100,0,0,100,0.00,40.00,0,-999,0,0.01
2012-8-6,68,58,46,-100,-100,-100,0,0,100,0.00,40.00,0,-999,0,0.01
2012-8-7,72,62,49,-100,-100,-100,0,0,100,0.00,40.00,0,-999,0,0.00
2012-8-8,70,61,52,-100,-100,-100,0,0,100,0.00,40.00,0,-999,0,0.01
2012-8-9,70,62,48,-100,-100,-100,0,0,100,0.00,40.00,0,-999,0,0.01
2012-8-10,67,57,48,-100,-100,-100,0,0,100,0.00,40.00,0,-999,0,0.02
2012-8-11,70,54,46,-100,-100,-100,0,0,100,0.00,40.00,0,-999,0,0.03
2012-8-12,65,56,47,-100,-100,-100,0,0,100,0.00,40.00,0,-999,0,0.01
2012-8-13,64,56,48,-100,-100,-100,0,0,100,0.00,40.00,0,-999,0,0.01
2012-8-14,69,57,46,-100,-100,-100,0,0,100,0.00,40.00,0,-999,0,0.00
2012-8-15,67,56,48,-100,-100,-100,0,0,100,0.00,40.00,0,-999,0,0.00
2012-8-16,70,59,47,-100,-100,-100,0,0,100,0.00,40.00,0,-999,0,0.00
2012-8-17,68,58,49,-100,-100,-100,0,0,100,0.00,40.00,0,-999,0,0.00
2012-8-18,68,55,49,-100,-100,-100,0,0,100,0.00,40.00,0,-999,0,0.02
2012-8-19,64,54,47,-100,-100,-100,0,0,100,0.00,40.00,0,-999,0,0.03
2012-8-20,66,55,44,-100,-100,-100,0,0,100,0.00,40.00,0,-999,0,0.02
2012-8-21,67,56,47,-100,-100,-100,0,0,100,0.00,40.00,0,-999,0,0.02
2012-8-22,57,51,45,-100,-100,-100,0,0,100,0.00,40.00,0,-999,0,0.02
2012-8-23,65,54,44,-100,-100,-100,0,0,100,0.00,40.00,0,-999,0,0.00
2012-8-24,67,55,45,-100,-100,-100,0,0,100,0.00,40.00,0,-999,0,0.00
2012-8-25,63,55,46,-100,-100,-100,0,0,100,0.00,40.00,0,-999,0,0.01
2012-8-26,65,56,50,-100,-100,-100,0,0,100,0.00,40.00,0,-999,0,0.02
2012-8-27,66,56,48,-100,-100,-100,0,0,100,0.00,40.00,0,-999,0,0.01
2012-8-28,68,57,44,-100,-100,-100,0,0,100,0.00,40.00,0,-999,0,0.00
2012-8-29,68,57,49,-100,-100,-100,0,0,100,0.00,40.00,0,-999,0,0.00
2012-8-30,63,54,47,-100,-100,-100,0,0,100,0.00,40.00,0,-999,0,0.01
2012-8-31,59,52,46,-100,-100,-100,0,0,100,0.00,40.00,0,-999,0,0.01
2012-9-1,59,51,42,-100,-100,-100,0,0,100,0.00,40.00,0,-999,0,0.01
2012-9-2,63,49,39,-100,-100,-100,0,0,100,0.00,40.00,0,-999,0,0.00
2012-9-3,64,52,42,-100,-100,-100,0,0,100,0.00,40.00,0,-999,0,0.00
2012-9-4,66,53,44,-100,-100,-100,0,0,100,0.00,40.00,0,-999,0,0.00
2012-9-5,65,54,44,-100,-100,-100,0,0,100,0.00,40.00,0,-999,0,0.00
2012-9-6,63,52,46,-100,-100,-100,0,0,100,0.00,40.00,0,-999,0,0.01
2012-9-7,61,51,42,-100,-100,-100,0,0,100,0.00,40.00,0,-999,0,0.00
2012-9-8,65,54,44,-100,-100,-100,0,0,100,0.00,40.00,0,-999,0,0.00
2012-9-9,63,55,50,-100,-100,-100,0,0,100,0.00,40.00,0,-999,0,0.01
2012-9-10,63,52,45,-100,-100,-100,0,0,100,0.00,40.00,0,-999,0,0.03
2012-9-11,53,47,43,-100,-100,-100,0,0,100,0.00,40.00,0,-999,0,0.04
2012-9-12,57,47,37,-100,-100,-100,0,0,100,0.00,40.00,0,-999,0,0.01
2012-9-13,61,54,43,-100,-100,-100,0,0,100,0.00,40.00,0,-999,0,0.00
2012-9-14,64,51,39,-100,-100,-100,0,0,100,0.00,40.00,0,-999,0,0.00
2012-9-15,62,52,40,-100,-100,-100,0,0,100,0.00,40.00,0,-999,0,0.00
2012-9-16,61,50,40,-100,-100,-100,0,0,100,0.00,40.00,0,-999,0,0.00
2012-9-17,58,49,39,-100,-100,-100,0,0,100,0.00,40.00,0,-999,0,0.00
2012-9-18,61,49,37,-100,-100,-100,0,0,100,0.00,40.00,0,-999,0,0.00
2012-9-19,62,50,39,-100,-100,-100,0,0,100,0.00,40.00,0,-999,0,0.00
2012-9-20,63,52,41,-100,-100,-100,0,0,100,0.00,40.00,0,-999,0,0.00
2012-9-21,63,52,42,-100,-100,-100,0,0,100,0.00,40.00,0,-999,0,0.00
2012-9-22,62,53,44,-100,-100,-100,0,0,100,0.00,40.00,0,-999,0,0.00
2012-9-23,60,53,45,-100,-100,-100,0,0,100,0.00,40.00,0,-999,0,0.00
2012-9-24,49,39,33,-100,-100,-100,0,0,100,0.00,40.00,0,-999,0,0.04
2012-9-25,50,40,33,-100,-100,-100,0,0,100,0.00,40.00,0,-999,0,0.01
2012-9-26,50,43,37,-100,-100,-100,0,0,100,0.00,40.00,0,-999,0,0.00
2012-9-27,55,45,37,-100,-100,-100,0,0,100,0.00,40.00,0,-999,0,0.00
2012-9-28,56,44,38,-100,-100,-100,0,0,100,0.00,40.00,0,-999,0,0.00
2012-9-29,56,44,38,-100,-100,-100,0,0,100,0.00,40.00,0,-999,0,0.00
2012-9-30,59,48,39,-100,-100,-100,0,0,100,0.00,40.00,0,-999,0,0.00
2012-10-1,61,49,40,-100,-100,-100,0,0,100,0.00,40.00,0,-999,0,0.00
2012-10-2,61,49,39,-100,-100,-100,0,0,100,0.00,40.00,0,-999,0,0.00
2012-10-3,59,49,42,-100,-100,-100,0,0,100,0.00,40.00,0,-999,0,0.00
2012-10-4,56,49,39,-100,-100,-100,0,0,100,0.00,40.00,0,-999,0,0.00
2012-10-5,51,45,38,-100,-100,-100,0,0,100,0.00,40.00,0,-999,0,0.00
2012-10-6,49,39,31,-100,-100,-100,0,0,100,0.00,40.00,0,-999,0,0.00
2012-10-7,51,39,30,-100,-100,-100,0,0,100,0.00,40.00,0,-999,0,0.00
2012-10-8,54,44,35,-100,-100,-100,0,0,100,0.00,40.00,0,-999,0,0.00
2012-10-9,55,44,34,-100,-100,-100,0,0,100,0.00,40.00,0,-999,0,0.00
2012-10-10,51,44,38,-100,-100,-100,0,0,100,0.00,40.00,0,-999,0,0.01
2012-10-11,48,43,38,-100,-100,-100,0,0,100,0.00,40.00,0,-999,0,0.01
2012-10-12,42,36,34,-100,-100,-100,0,0,100,0.00,40.00,0,-999,0,0.05
2012-10-13,45,38,33,-100,-100,-100,0,0,100,0.00,40.00,0,-999,0,0.02
2012-10-14,51,38,30,-100,-100,-100,0,0,100,0.00,40.00,0,-999,0,0.00
2012-10-15,53,44,35,-100,-100,-100,0,0,100,0.00,40.00,0,-999,0,0.00
2012-10-16,56,46,35,-100,-100,-100,0,0,100,0.00,40.00,0,-999,0,0.00
2012-10-17,48,38,31,-100,-100,-100,0,0,100,0.00,40.00,0,-999,0,0.01
2012-10-18,53,40,32,-100,-100,-100,0,0,100,0.00,40.00,0,-999,0,0.00
2012-10-19,54,46,35,-100,-100,-100,0,0,100,0.00,40.00,0,-999,0,0.00
2012-10-20,55,47,39,-100,-100,-100,0,0,100,0.00,40.00,0,-999,0,0.00
2012-10-21,50,42,35,-100,-100,-100,0,0,100,0.00,40.00,0,-999,0,0.00
2012-10-22,41,39,37,-100,-100,-100,0,0,100,0.00,40.00,0,-999,0,0.01
2012-10-23,38,33,28,-100,-100,-100,0,0,100,0.00,40.00,0,-999,0,0.01
2012-10-24,29,25,19,-100,-100,-100,0,0,100,0.00,40.00,0,-999,0,0.01
2012-10-25,25,21,11,-100,-100,-100,0,0,100,0.00,40.00,0,-999,0,0.01
2012-10-26,36,22,11,-100,-100,-100,0,0,100,0.00,40.00,0,-999,0,0.00
2012-10-27,44,33,23,-100,-100,-100,0,0,100,0.00,40.00,0,-999,0,0.00
2012-10-28,49,37,30,-100,-100,-100,0,0,100,0.00,40.00,0,-999,0,0.00
2012-10-29,50,38,31,-100,-100,-100,0,0,100,0.00,40.00,0,-999,0,0.00
2012-10-30,52,39,32,-100,-100,-100,0,0,100,0.00,40.00,0,-999,0,0.00
2012-10-31,52,42,35,-100,-100,-100,0,0,100,0.00,40.00,0,-999,0,0.00
2012-11-1,46,41,36,-100,-100,-100,0,0,100,0.00,40.00,0,-999,0,0.00
2012-11-2,45,36,30,-100,-100,-100,0,0,100,0.00,40.00,0,-999,0,0.00
2012-11-3,47,35,28,-100,-100,-100,0,0,100,0.00,40.00,0,-999,0,0.00
2012-11-4,49,38,31,-100,-100,-100,0,0,100,0.00,40.00,0,-999,0,0.00
2012-11-5,51,40,35,-100,-100,-100,0,0,100,0.00,40.00,0,-999,0,0.00
2012-11-6,54,41,34,-100,-100,-100,0,0,100,0.00,40.00,0,-999,0,0.00
2012-11-7,50,40,32,-100,-100,-100,0,0,100,0.00,40.00,0,-999,0,0.00
2012-11-8,45,40,35,-100,-100,-100,0,0,100,0.00,40.00,0,-999,0,0.00
2012-11-9,36,21,11,-100,-100,-100,0,0,100,0.00,40.00,0,-999,0,0.01
2012-11-10,16,12,9,-100,-100,-100,0,0,100,0.00,40.00,0,-999,0,0.00
2012-11-11,22,12,8,-100,-100,-100,0,0,100,0.00,40.00,0,-999,0,0.00
2012-11-12,35,23,13,-100,-100,-100,0,0,100,0.00,40.00,0,-999,0,0.00
2012-11-13,36,27,19,-100,-100,-100,0,0,100,0.00,40.00,0,-999,0,0.00
2012-11-14,42,31,25,-100,-100,-100,0,0,100,0.00,40.00,0,-999,0,0.00
2012-11-15,43,33,25,-100,-100,-100,0,0,100,0.00,40.00,0,-999,0,0.00
2012-11-16,37,34,31,-100,-100,-100,0,0,100,0.00,40.00,0,-999,0,0.00
2012-11-17,35,34,33,-100,-100,-100,0,0,100,0.00,40.00,0,-999,0,0.01
2012-11-18,36,32,28,-100,-100,-100,0,0,100,0.00,40.00,0,-999,0,0.01
2012-11-19,40,31,26,-100,-100,-100,0,0,100,0.00,40.00,0,-999,0,0.00
2012-11-20,44,36,27,-100,-100,-100,0,0,100,0.00,40.00,0,-999,0,0.00
2012-11-21,45,37,29,-100,-100,-100,0,0,100,0.00,40.00,0,-999,0,0.00
2012-11-22,38,30,26,-100,-100,-100,0,0,100,0.00,40.00,0,-999,0,0.00
2012-11-23,44,34,29,-100,-100,-100,0,0,100,0.00,40.00,0,-999,0,0.00
2012-11-24,45,33,28,-100,-100,-100,0,0,100,0.00,40.00,0,-999,0,0.00
2012-11-25,42,32,23,-100,-100,-100,0,0,100,0.00,40.00,0,-999,0,0.00
2012-11-26,29,24,22,-100,-100,-100,0,0,100,0.00,40.00,0,-999,0,0.00
2012-11-27,40,32,24,-100,-100,-100,0,0,100,0.00,40.00,0,-999,0,0.00
2012-11-28,40,36,32,-100,-100,-100,0,0,100,0.00,40.00,0,-999,0,0.00
2012-11-29,40,35,30,-100,-100,-100,0,0,100,0.00,40.00,0,-999,0,0.00
2012-11-30,39,35,33,-100,-100,-100,0,0,100,0.00,40.00,0,-999,0,0.02
2012-12-1,44,36,30,-100,-100,-100,0,0,100,0.00,40.00,0,-999,0,0.01
2012-12-2,38,35,26,-100,-100,-100,0,0,100,0.00,40.00,0,-999,0,0.02
2012-12-3,33,25,16,-100,-100,-100,0,0,100,0.00,40.00,0,-999,0,0.01
2012-12-4,44,38,26,-100,-100,-100,0,0,100,0.00,40.00,0,-999,0,0.00
2012-12-5,43,37,33,-100,-100,-100,0,0,100,0.00,40.00,0,-999,0,0.00
2012-12-6,35,30,24,-100,-100,-100,0,0,100,0.00,40.00,0,-999,0,0.00
2012-12-7,30,25,17,-100,-100,-100,0,0,100,0.00,40.00,0,-999,0,0.00
2012-12-8,27,23,20,-100,-100,-100,0,0,100,0.00,40.00,0,-999,0,0.00
2012-12-9,21,17,15,-100,-100,-100,0,0,100,0.00,40.00,0,-999,0,0.00
2012-12-10,30,25,19,-100,-100,-100,0,0,100,0.00,40.00,0,-999,0,0.00
2012-12-11,31,26,18,-100,-100,-100,0,0,100,0.00,40.00,0,-999,0,0.00
2012-12-12,33,27,25,-100,-100,-100,0,0,100,0.00,40.00,0,-999,0,0.00
2012-12-13,27,25,24,-100,-100,-100,0,0,100,0.00,40.00,0,-999,0,0.01
2012-12-14,27,24,19,-100,-100,-100,0,0,100,0.00,40.00,0,-999,0,0.01
2012-12-15,20,16,10,-100,-100,-100,0,0,100,0.00,40.00,0,-999,0,0.01
2012-12-16,27,20,14,-100,-100,-100,0,0,100,0.00,40.00,0,-999,0,0.01
2012-12-17,30,27,23,-100,-100,-100,0,0,100,0.00,40.00,0,-999,0,0.01
2012-12-18,23,16,8,-100,-100,-100,0,0,100,0.00,40.00,0,-999,0,0.04
2012-12-19,10,4,-5,-100,-100,-100,0,0,100,0.00,40.00,0,-999,0,0.01
2012-12-20,27,20,8,-100,-100,-100,0,0,100,0.00,40.00,0,-999,0,0.01
2012-12-21,34,30,26,-100,-100,-100,0,0,100,0.00,40.00,0,-999,0,0.00
2012-12-22,32,27,24,-100,-100,-100,0,0,100,0.00,40.00,0,-999,0,0.01
2012-12-23,30,25,16,-100,-100,-100,0,0,100,0.00,40.00,0,-999,0,0.00
2012-12-24,26,16,-1,-100,-100,-100,0,0,100,0.00,40.00,0,-999,0,0.02
2012-12-25,26,16,-1,-100,-100,-100,0,0,100,0.00,40.00,0,-999,0,0.01
2012-12-26,22,18,15,-100,-100,-100,0,0,100,0.00,40.00,0,-999,0,0.01
2012-12-27,18,14,2,-100,-100,-100,0,0,100,0.00,40.00,0,-999,0,0.02
2012-12-28,21,10,-2,-100,-100,-100,0,0,100,0.00,40.00,0,-999,0,0.00
2012-12-29,21,17,12,-100,-100,-100,0,0,100,0.00,40.00,0,-999,0,0.01
2012-12-30,18,10,1,-100,-100,-100,0,0,100,0.00,40.00,0,-999,0,0.00
2012-12-31,17,6,-1,-100,-100,-100,0,0,100,0.00,40.00,0,-999,0,0.00
2013-1-1,23,13,3,-100,-100,-100,0,0,100,0.00,40.00,0,-999,0,0.01